Wetterdaten: Dienstag, 08.06.2010
Datum Zeit Temp. A. Feuchte A. Luftdruck Regen Wind Richtung Richtung Sonnenschein UV Solar Windben
08.06.2010 00:00 13,4 C 84 % 1009,1 hPa 0,0 mm 0,0 km/h (0 Bft) NW 315 0 min 0 UV-I 0 W/m 3,2 km/h (1 Bft)
08.06.2010 00:10 13,2 C 85 % 1009,1 hPa 0,0 mm 0,0 km/h (0 Bft) NW 315 0 min 0 UV-I 0 W/m 3,2 km/h (1 Bft)
08.06.2010 00:20 13,0 C 85 % 1009,0 hPa 0,0 mm 0,0 km/h (0 Bft) NW 315 0 min 0 UV-I 0 W/m 3,2 km/h (1 Bft)
08.06.2010 00:30 13,0 C 85 % 1009,1 hPa 0,0 mm 0,0 km/h (0 Bft) NW 315 0 min 0 UV-I 0 W/m 3,2 km/h (1 Bft)
08.06.2010 00:40 12,8 C 85 % 1009,0 hPa 0,0 mm 0,0 km/h (0 Bft) NW 315 0 min 0 UV-I 0 W/m 4,8 km/h (1 Bft)
08.06.2010 00:50 12,7 C 85 % 1009,0 hPa 0,0 mm 0,0 km/h (0 Bft) O-NO 67 0 min 0 UV-I 0 W/m 3,2 km/h (1 Bft)
08.06.2010 01:00 12,7 C 85 % 1008,9 hPa 0,0 mm 0,0 km/h (0 Bft) O-NO 67 0 min 0 UV-I 0 W/m 1,6 km/h (1 Bft)
08.06.2010 01:10 12,4 C 86 % 1008,8 hPa 0,0 mm 0,0 km/h (0 Bft) N 0 0 min 0 UV-I 0 W/m 0,0 km/h (0 Bft)
08.06.2010 01:20 12,3 C 86 % 1008,7 hPa 0,0 mm 0,0 km/h (0 Bft) N 0 0 min 0 UV-I 0 W/m 0,0 km/h (0 Bft)
08.06.2010 01:30 12,2 C 86 % 1008,7 hPa 0,0 mm 0,0 km/h (0 Bft) O-NO 67 0 min 0 UV-I 0 W/m 1,6 km/h (1 Bft)
08.06.2010 01:40 12,1 C 86 % 1008,6 hPa 0,0 mm 0,0 km/h (0 Bft) N 0 0 min 0 UV-I 0 W/m 0,0 km/h (0 Bft)
08.06.2010 01:50 12,1 C 86 % 1008,7 hPa 0,0 mm 0,0 km/h (0 Bft) N 0 0 min 0 UV-I 0 W/m 0,0 km/h (0 Bft)
08.06.2010 02:00 11,9 C 87 % 1008,5 hPa 0,0 mm 0,0 km/h (0 Bft) N 0 0 min 0 UV-I 0 W/m 0,0 km/h (0 Bft)
08.06.2010 02:10 11,9 C 87 % 1008,4 hPa 0,0 mm 0,0 km/h (0 Bft) O-NO 67 0 min 0 UV-I 0 W/m 1,6 km/h (1 Bft)
08.06.2010 02:20 11,9 C 87 % 1008,3 hPa 0,0 mm 0,0 km/h (0 Bft) N 0 0 min 0 UV-I 0 W/m 0,0 km/h (0 Bft)
08.06.2010 02:30 11,8 C 87 % 1008,3 hPa 0,0 mm 0,0 km/h (0 Bft) N 0 0 min 0 UV-I 0 W/m 0,0 km/h (0 Bft)
08.06.2010 02:40 11,8 C 88 % 1008,2 hPa 0,0 mm 0,0 km/h (0 Bft) O-NO 67 0 min 0 UV-I 0 W/m 3,2 km/h (1 Bft)
08.06.2010 02:50 11,9 C 88 % 1008,2 hPa 0,0 mm 0,0 km/h (0 Bft) O-NO 67 0 min 0 UV-I 0 W/m 3,2 km/h (1 Bft)
08.06.2010 03:00 12,1 C 88 % 1008,0 hPa 0,0 mm 0,0 km/h (0 Bft) O-NO 67 0 min 0 UV-I 0 W/m 1,6 km/h (1 Bft)
08.06.2010 03:10 12,1 C 87 % 1007,9 hPa 0,0 mm 0,0 km/h (0 Bft) O-NO 67 0 min 0 UV-I 0 W/m 1,6 km/h (1 Bft)
08.06.2010 03:20 12,1 C 87 % 1007,8 hPa 0,0 mm 0,0 km/h (0 Bft) N 0 0 min 0 UV-I 0 W/m 0,0 km/h (0 Bft)
08.06.2010 03:30 11,9 C 87 % 1007,7 hPa 0,0 mm 0,0 km/h (0 Bft) O-NO 67 0 min 0 UV-I 0 W/m 1,6 km/h (1 Bft)
08.06.2010 03:40 11,7 C 88 % 1007,8 hPa 0,0 mm 0,0 km/h (0 Bft) N 0 0 min 0 UV-I 0 W/m 0,0 km/h (0 Bft)
08.06.2010 03:50 11,7 C 88 % 1007,7 hPa 0,0 mm 0,0 km/h (0 Bft) N 0 0 min 0 UV-I 0 W/m 0,0 km/h (0 Bft)
08.06.2010 04:00 11,5 C 88 % 1007,6 hPa 0,0 mm 0,0 km/h (0 Bft) N 0 0 min 0 UV-I 0 W/m 0,0 km/h (0 Bft)
08.06.2010 04:10 11,6 C 89 % 1007,6 hPa 0,0 mm 0,0 km/h (0 Bft) O-NO 67 0 min 0 UV-I 0 W/m 3,2 km/h (1 Bft)
08.06.2010 04:20 11,9 C 89 % 1007,6 hPa 0,0 mm 0,0 km/h (0 Bft) O-NO 67 0 min 0 UV-I 0 W/m 1,6 km/h (1 Bft)
08.06.2010 04:30 12,2 C 88 % 1007,7 hPa 0,0 mm 0,0 km/h (0 Bft) O-NO 67 0 min 0 UV-I 0 W/m 1,6 km/h (1 Bft)
08.06.2010 04:40 12,3 C 88 % 1007,6 hPa 0,0 mm 0,0 km/h (0 Bft) O-NO 67 0 min 0 UV-I 0 W/m 1,6 km/h (1 Bft)
08.06.2010 04:50 12,3 C 87 % 1007,6 hPa 0,0 mm 0,0 km/h (0 Bft) O-NO 67 0 min 0 UV-I 0 W/m 3,2 km/h (1 Bft)
08.06.2010 05:00 12,3 C 87 % 1007,6 hPa 0,0 mm 0,0 km/h (0 Bft) O-NO 67 0 min 0 UV-I 0 W/m 1,6 km/h (1 Bft)
08.06.2010 05:10 12,3 C 87 % 1007,7 hPa 0,0 mm 0,0 km/h (0 Bft) N 0 0 min 0 UV-I 0 W/m 0,0 km/h (0 Bft)
08.06.2010 05:20 12,2 C 88 % 1007,7 hPa 0,0 mm 0,0 km/h (0 Bft) N 0 0 min 0 UV-I 0 W/m 0,0 km/h (0 Bft)
08.06.2010 05:30 12,1 C 88 % 1007,7 hPa 0,0 mm 0,0 km/h (0 Bft) N 0 0 min 0 UV-I 9 W/m 0,0 km/h (0 Bft)
08.06.2010 05:40 12,1 C 89 % 1007,7 hPa 0,0 mm 0,0 km/h (0 Bft) N 0 0 min 0 UV-I 16 W/m 0,0 km/h (0 Bft)
08.06.2010 05:50 12,2 C 89 % 1007,7 hPa 0,0 mm 0,0 km/h (0 Bft) N 0 0 min 0 UV-I 25 W/m 0,0 km/h (0 Bft)
08.06.2010 06:00 12,5 C 88 % 1007,6 hPa 0,0 mm 0,0 km/h (0 Bft) O-NO 67 0 min 0 UV-I 35 W/m 1,6 km/h (1 Bft)
08.06.2010 06:10 12,7 C 88 % 1007,6 hPa 0,0 mm 0,0 km/h (0 Bft) N 0 0 min 0 UV-I 35 W/m 0,0 km/h (0 Bft)
08.06.2010 06:20 12,8 C 88 % 1007,6 hPa 0,0 mm 0,0 km/h (0 Bft) N 0 0 min 0 UV-I 44 W/m 0,0 km/h (0 Bft)
08.06.2010 06:30 13,0 C 88 % 1007,6 hPa 0,0 mm 0,0 km/h (0 Bft) N 0 10 min 0 UV-I 100 W/m 0,0 km/h (0 Bft)
08.06.2010 06:40 13,3 C 88 % 1007,3 hPa 0,0 mm 0,0 km/h (0 Bft) O-NO 67 10 min 0 UV-I 134 W/m 1,6 km/h (1 Bft)
08.06.2010 06:50 13,9 C 87 % 1007,3 hPa 0,0 mm 0,0 km/h (0 Bft) N 0 0 min 0 UV-I 105 W/m 0,0 km/h (0 Bft)
08.06.2010 07:00 14,2 C 85 % 1007,3 hPa 0,0 mm 0,0 km/h (0 Bft) N 0 0 min 0 UV-I 104 W/m 0,0 km/h (0 Bft)
08.06.2010 07:10 14,4 C 85 % 1007,2 hPa 0,0 mm 0,0 km/h (0 Bft) N 0 0 min 1 UV-I 95 W/m 0,0 km/h (0 Bft)
08.06.2010 07:20 14,8 C 85 % 1007,2 hPa 0,0 mm 0,0 km/h (0 Bft) N 0 0 min 1 UV-I 90 W/m 0,0 km/h (0 Bft)
08.06.2010 07:30 15,0 C 83 % 1007,1 hPa 0,0 mm 0,0 km/h (0 Bft) O-NO 67 0 min 1 UV-I 91 W/m 4,8 km/h (1 Bft)
08.06.2010 07:40 15,1 C 82 % 1007,1 hPa 0,0 mm 1,6 km/h (1 Bft) O-SO 112 10 min 1 UV-I 218 W/m 8,0 km/h (2 Bft)
08.06.2010 07:50 15,6 C 81 % 1007,0 hPa 0,0 mm 1,6 km/h (1 Bft) O-SO 112 10 min 1 UV-I 271 W/m 6,4 km/h (2 Bft)
08.06.2010 08:00 16,6 C 78 % 1006,9 hPa 0,0 mm 5,9 km/h (2 Bft) O-SO 109 10 min 1 UV-I 339 W/m 11,3 km/h (2 Bft)
08.06.2010 08:10 16,9 C 76 % 1006,8 hPa 0,0 mm 1,6 km/h (1 Bft) O-SO 112 10 min 1 UV-I 369 W/m 11,3 km/h (2 Bft)
08.06.2010 08:20 17,3 C 72 % 1006,8 hPa 0,0 mm 0,0 km/h (0 Bft) O-SO 112 10 min 2 UV-I 366 W/m 3,2 km/h (1 Bft)
08.06.2010 08:30 17,7 C 72 % 1006,7 hPa 0,0 mm 0,0 km/h (0 Bft) S 180 10 min 2 UV-I 487 W/m 4,8 km/h (1 Bft)
08.06.2010 08:40 18,3 C 72 % 1006,6 hPa 0,0 mm 0,0 km/h (0 Bft) S-SO 157 10 min 2 UV-I 432 W/m 4,8 km/h (1 Bft)
08.06.2010 08:50 18,4 C 69 % 1006,6 hPa 0,0 mm 1,6 km/h (1 Bft) S-SO 157 10 min 2 UV-I 457 W/m 8,0 km/h (2 Bft)
08.06.2010 09:00 18,8 C 67 % 1006,6 hPa 0,0 mm 1,6 km/h (1 Bft) S 180 10 min 2 UV-I 471 W/m 11,3 km/h (2 Bft)
08.06.2010 09:10 19,2 C 65 % 1006,5 hPa 0,0 mm 3,2 km/h (1 Bft) O-SO 112 10 min 2 UV-I 504 W/m 8,0 km/h (2 Bft)
08.06.2010 09:20 19,4 C 64 % 1006,5 hPa 0,0 mm 1,6 km/h (1 Bft) S 180 10 min 2 UV-I 476 W/m 8,0 km/h (2 Bft)
08.06.2010 09:30 19,5 C 65 % 1006,5 hPa 0,0 mm 3,2 km/h (1 Bft) S-SW 202 10 min 2 UV-I 464 W/m 9,7 km/h (2 Bft)
08.06.2010 09:40 19,9 C 63 % 1006,4 hPa 0,0 mm 3,2 km/h (1 Bft) S 180 10 min 3 UV-I 526 W/m 11,3 km/h (2 Bft)
08.06.2010 09:50 20,1 C 66 % 1006,3 hPa 0,0 mm 1,6 km/h (1 Bft) S 180 10 min 3 UV-I 404 W/m 6,4 km/h (2 Bft)
08.06.2010 10:00 20,6 C 62 % 1006,4 hPa 0,0 mm 1,6 km/h (1 Bft) S-SO 157 10 min 3 UV-I 571 W/m 8,0 km/h (2 Bft)
08.06.2010 10:10 20,8 C 59 % 1006,4 hPa 0,0 mm 1,6 km/h (1 Bft) SO 135 10 min 3 UV-I 392 W/m 9,7 km/h (2 Bft)
08.06.2010 10:20 21,0 C 61 % 1006,3 hPa 0,0 mm 1,6 km/h (1 Bft) SO 135 0 min 3 UV-I 371 W/m 6,4 km/h (2 Bft)
08.06.2010 10:30 21,4 C 61 % 1006,2 hPa 0,0 mm 1,6 km/h (1 Bft) O-SO 112 10 min 4 UV-I 552 W/m 11,3 km/h (2 Bft)
08.06.2010 10:40 21,9 C 60 % 1006,1 hPa 0,0 mm 1,6 km/h (1 Bft) SO 135 10 min 5 UV-I 846 W/m 6,4 km/h (2 Bft)
08.06.2010 10:50 22,4 C 56 % 1006,1 hPa 0,0 mm 3,2 km/h (1 Bft) S 180 10 min 5 UV-I 780 W/m 9,7 km/h (2 Bft)
08.06.2010 11:00 22,2 C 55 % 1005,9 hPa 0,0 mm 3,2 km/h (1 Bft) S 180 10 min 5 UV-I 742 W/m 11,3 km/h (2 Bft)
08.06.2010 11:10 22,7 C 56 % 1006,0 hPa 0,0 mm 3,2 km/h (1 Bft) O-SO 112 10 min 6 UV-I 930 W/m 11,3 km/h (2 Bft)
08.06.2010 11:20 23,3 C 52 % 1006,0 hPa 0,0 mm 4,8 km/h (1 Bft) O-SO 112 10 min 6 UV-I 925 W/m 16,1 km/h (3 Bft)
08.06.2010 11:30 22,8 C 52 % 1006,0 hPa 0,0 mm 4,8 km/h (1 Bft) SO 135 10 min 6 UV-I 800 W/m 12,9 km/h (3 Bft)
08.06.2010 11:40 22,9 C 54 % 1005,9 hPa 0,0 mm 1,6 km/h (1 Bft) S-SW 202 10 min 5 UV-I 589 W/m 11,3 km/h (2 Bft)
08.06.2010 11:50 23,1 C 53 % 1005,9 hPa 0,0 mm 3,2 km/h (1 Bft) SO 135 10 min 6 UV-I 670 W/m 8,0 km/h (2 Bft)
08.06.2010 12:00 23,2 C 53 % 1005,8 hPa 0,0 mm 4,8 km/h (1 Bft) O-SO 112 10 min 6 UV-I 740 W/m 12,9 km/h (3 Bft)
08.06.2010 12:10 24,1 C 48 % 1005,7 hPa 0,0 mm 4,8 km/h (1 Bft) O 90 10 min 7 UV-I 958 W/m 12,9 km/h (3 Bft)
08.06.2010 12:20 23,8 C 53 % 1005,6 hPa 0,0 mm 3,2 km/h (1 Bft) O-SO 112 10 min 7 UV-I 1028 W/m 14,5 km/h (3 Bft)
08.06.2010 12:30 24,8 C 49 % 1005,4 hPa 0,0 mm 3,2 km/h (1 Bft) O-SO 112 10 min 7 UV-I 1021 W/m 11,3 km/h (2 Bft)
08.06.2010 12:40 24,8 C 47 % 1005,4 hPa 0,0 mm 4,8 km/h (1 Bft) S-SW 202 10 min 7 UV-I 912 W/m 12,9 km/h (3 Bft)
08.06.2010 12:50 24,5 C 52 % 1005,3 hPa 0,0 mm 6,4 km/h (2 Bft) S 180 10 min 7 UV-I 904 W/m 16,1 km/h (3 Bft)
08.06.2010 13:00 24,7 C 46 % 1005,1 hPa 0,0 mm 3,2 km/h (1 Bft) S-SO 157 10 min 6 UV-I 882 W/m 11,3 km/h (2 Bft)
08.06.2010 13:10 24,3 C 49 % 1005,1 hPa 0,0 mm 3,2 km/h (1 Bft) SW 225 0 min 6 UV-I 338 W/m 9,7 km/h (2 Bft)
08.06.2010 13:20 24,1 C 48 % 1005,0 hPa 0,0 mm 4,8 km/h (1 Bft) S 180 10 min 7 UV-I 1097 W/m 14,5 km/h (3 Bft)
08.06.2010 13:30 24,7 C 49 % 1004,8 hPa 0,0 mm 4,8 km/h (1 Bft) S-SW 202 10 min 6 UV-I 742 W/m 17,7 km/h (3 Bft)
08.06.2010 13:40 24,6 C 47 % 1004,8 hPa 0,0 mm 4,8 km/h (1 Bft) S 180 10 min 7 UV-I 886 W/m 12,9 km/h (3 Bft)
08.06.2010 13:50 25,4 C 45 % 1004,6 hPa 0,0 mm 6,4 km/h (2 Bft) S 180 10 min 7 UV-I 969 W/m 19,3 km/h (3 Bft)
08.06.2010 14:00 25,0 C 45 % 1004,5 hPa 0,0 mm 6,4 km/h (2 Bft) S 180 10 min 6 UV-I 870 W/m 20,9 km/h (4 Bft)
08.06.2010 14:10 25,4 C 46 % 1004,3 hPa 0,0 mm 4,8 km/h (1 Bft) SO 135 10 min 7 UV-I 935 W/m 17,7 km/h (3 Bft)
08.06.2010 14:20 25,8 C 44 % 1004,3 hPa 0,0 mm 8,0 km/h (2 Bft) S 180 10 min 7 UV-I 967 W/m 19,3 km/h (3 Bft)
08.06.2010 14:30 26,0 C 46 % 1004,3 hPa 0,0 mm 6,4 km/h (2 Bft) S-SW 202 10 min 7 UV-I 1020 W/m 20,9 km/h (4 Bft)
08.06.2010 14:40 25,2 C 45 % 1004,3 hPa 0,0 mm 6,4 km/h (2 Bft) SO 135 10 min 6 UV-I 949 W/m 20,9 km/h (4 Bft)
08.06.2010 14:50 25,4 C 47 % 1004,3 hPa 0,0 mm 3,2 km/h (1 Bft) S-SO 157 0 min 4 UV-I 343 W/m 12,9 km/h (3 Bft)
08.06.2010 15:00 24,9 C 47 % 1004,2 hPa 0,0 mm 4,8 km/h (1 Bft) S 180 0 min 2 UV-I 394 W/m 16,1 km/h (3 Bft)
08.06.2010 15:10 24,4 C 50 % 1004,1 hPa 0,0 mm 4,8 km/h (1 Bft) S-SW 202 0 min 3 UV-I 410 W/m 12,9 km/h (3 Bft)
08.06.2010 15:20 25,3 C 47 % 1004,0 hPa 0,0 mm 3,2 km/h (1 Bft) S-SW 202 10 min 5 UV-I 946 W/m 16,1 km/h (3 Bft)
08.06.2010 15:30 26,1 C 47 % 1004,0 hPa 0,0 mm 4,8 km/h (1 Bft) SO 135 10 min 5 UV-I 457 W/m 17,7 km/h (3 Bft)
08.06.2010 15:40 25,6 C 46 % 1003,9 hPa 0,0 mm 4,8 km/h (1 Bft) S-SW 202 10 min 4 UV-I 468 W/m 14,5 km/h (3 Bft)
08.06.2010 15:50 25,1 C 48 % 1003,8 hPa 0,0 mm 3,2 km/h (1 Bft) S-SW 202 0 min 2 UV-I 246 W/m 14,5 km/h (3 Bft)
08.06.2010 16:00 24,3 C 50 % 1003,8 hPa 0,0 mm 2,0 km/h (1 Bft) S-SW 192 0 min 2 UV-I 226 W/m 8,0 km/h (2 Bft)
08.06.2010 16:10 25,0 C 46 % 1003,7 hPa 0,0 mm 4,8 km/h (1 Bft) S 180 10 min 4 UV-I 923 W/m 16,1 km/h (3 Bft)
08.06.2010 16:20 25,1 C 48 % 1003,6 hPa 0,0 mm 3,2 km/h (1 Bft) S-SW 202 0 min 2 UV-I 234 W/m 11,3 km/h (2 Bft)
08.06.2010 16:30 24,8 C 48 % 1003,6 hPa 0,0 mm 3,2 km/h (1 Bft) S 180 10 min 3 UV-I 719 W/m 9,7 km/h (2 Bft)
08.06.2010 16:40 25,2 C 48 % 1003,6 hPa 0,0 mm 1,6 km/h (1 Bft) SW 225 0 min 3 UV-I 262 W/m 8,0 km/h (2 Bft)
08.06.2010 16:50 25,1 C 49 % 1003,5 hPa 0,0 mm 0,0 km/h (0 Bft) S-SW 202 10 min 3 UV-I 747 W/m 4,8 km/h (1 Bft)
08.06.2010 17:00 25,5 C 48 % 1003,4 hPa 0,0 mm 1,6 km/h (1 Bft) SW 225 10 min 3 UV-I 686 W/m 6,4 km/h (2 Bft)
08.06.2010 17:10 25,2 C 49 % 1003,4 hPa 0,0 mm 3,2 km/h (1 Bft) S-SW 202 0 min 1 UV-I 88 W/m 8,0 km/h (2 Bft)
08.06.2010 17:20 24,6 C 51 % 1003,5 hPa 0,0 mm 3,2 km/h (1 Bft) W-SW 247 10 min 2 UV-I 473 W/m 12,9 km/h (3 Bft)
08.06.2010 17:30 23,7 C 56 % 1003,4 hPa 0,0 mm 3,2 km/h (1 Bft) W-NW 292 10 min 3 UV-I 360 W/m 12,9 km/h (3 Bft)
08.06.2010 17:40 22,9 C 59 % 1003,3 hPa 0,0 mm 4,8 km/h (1 Bft) N 360 0 min 1 UV-I 193 W/m 12,9 km/h (3 Bft)
08.06.2010 17:50 21,8 C 63 % 1003,3 hPa 0,0 mm 4,8 km/h (1 Bft) W-NW 292 0 min 1 UV-I 130 W/m 14,5 km/h (3 Bft)
08.06.2010 18:00 21,4 C 64 % 1003,4 hPa 0,0 mm 0,0 km/h (0 Bft) N-NO 22 0 min 1 UV-I 151 W/m 8,0 km/h (2 Bft)
08.06.2010 18:10 21,4 C 64 % 1003,3 hPa 0,0 mm 1,6 km/h (1 Bft) N 360 0 min 1 UV-I 151 W/m 8,0 km/h (2 Bft)
08.06.2010 18:20 21,6 C 64 % 1003,3 hPa 0,0 mm 0,0 km/h (0 Bft) N-NO 22 0 min 1 UV-I 155 W/m 4,8 km/h (1 Bft)
08.06.2010 18:30 21,4 C 64 % 1003,4 hPa 0,0 mm 1,6 km/h (1 Bft) N-NO 22 0 min 1 UV-I 139 W/m 6,4 km/h (2 Bft)
08.06.2010 18:40 21,4 C 64 % 1003,3 hPa 0,0 mm 0,0 km/h (0 Bft) N-NO 22 0 min 1 UV-I 183 W/m 4,8 km/h (1 Bft)
08.06.2010 18:50 21,6 C 65 % 1003,4 hPa 0,0 mm 0,0 km/h (0 Bft) N-NO 22 0 min 1 UV-I 156 W/m 1,6 km/h (1 Bft)
08.06.2010 19:00 21,4 C 65 % 1003,3 hPa 0,0 mm 0,0 km/h (0 Bft) N 360 0 min 1 UV-I 100 W/m 6,4 km/h (2 Bft)
08.06.2010 19:10 21,4 C 65 % 1003,3 hPa 0,0 mm 0,0 km/h (0 Bft) N 360 0 min 0 UV-I 70 W/m 1,6 km/h (1 Bft)
08.06.2010 19:20 21,3 C 66 % 1003,3 hPa 0,0 mm 0,0 km/h (0 Bft) N 360 0 min 0 UV-I 72 W/m 1,6 km/h (1 Bft)
08.06.2010 19:30 21,2 C 68 % 1003,4 hPa 0,0 mm 0,0 km/h (0 Bft) N 0 0 min 0 UV-I 60 W/m 0,0 km/h (0 Bft)
08.06.2010 19:40 21,2 C 69 % 1003,8 hPa 0,0 mm 1,6 km/h (1 Bft) SW 225 0 min 0 UV-I 70 W/m 6,4 km/h (2 Bft)
08.06.2010 19:50 20,8 C 70 % 1003,9 hPa 0,0 mm 3,2 km/h (1 Bft) W 270 0 min 0 UV-I 74 W/m 9,7 km/h (2 Bft)
08.06.2010 20:00 20,6 C 70 % 1003,9 hPa 0,0 mm 3,2 km/h (1 Bft) NW 315 0 min 0 UV-I 62 W/m 9,7 km/h (2 Bft)
08.06.2010 20:50 19,8 C 75 % 1003,7 hPa 0,0 mm 0,0 km/h (0 Bft) N-NW 337 0 min 0 UV-I 21 W/m 0,0 km/h (0 Bft)
08.06.2010 21:00 19,7 C 75 % 1003,8 hPa 0,0 mm 0,0 km/h (0 Bft) N-NW 337 0 min 0 UV-I 20 W/m 1,6 km/h (1 Bft)
08.06.2010 21:10 19,7 C 75 % 1003,9 hPa 0,0 mm 0,0 km/h (0 Bft) N-NW 337 0 min 0 UV-I 11 W/m 1,6 km/h (1 Bft)
08.06.2010 21:20 19,6 C 75 % 1003,9 hPa 0,0 mm 0,0 km/h (0 Bft) N-NW 337 0 min 0 UV-I 6 W/m 0,0 km/h (0 Bft)
08.06.2010 21:30 19,3 C 76 % 1004,0 hPa 0,0 mm 0,0 km/h (0 Bft) N-NW 337 0 min 0 UV-I 2 W/m 0,0 km/h (0 Bft)
08.06.2010 21:40 19,3 C 76 % 1004,1 hPa 0,0 mm 0,0 km/h (0 Bft) N-NW 337 0 min 0 UV-I 0 W/m 1,6 km/h (1 Bft)
08.06.2010 21:50 19,2 C 77 % 1004,3 hPa 0,0 mm 0,0 km/h (0 Bft) N-NW 337 0 min 0 UV-I 0 W/m 1,6 km/h (1 Bft)
08.06.2010 22:00 18,9 C 78 % 1004,4 hPa 0,0 mm 0,1 km/h (0 Bft) N-NW 337 0 min 0 UV-I 0 W/m 1,6 km/h (1 Bft)
08.06.2010 22:10 18,8 C 79 % 1004,5 hPa 0,0 mm 0,0 km/h (0 Bft) N 0 0 min 0 UV-I 0 W/m 0,0 km/h (0 Bft)
08.06.2010 22:20 18,6 C 79 % 1004,6 hPa 0,0 mm 0,0 km/h (0 Bft) N-NW 337 0 min 0 UV-I 0 W/m 1,6 km/h (1 Bft)
08.06.2010 22:30 18,5 C 79 % 1004,6 hPa 0,0 mm 0,0 km/h (0 Bft) N-NW 337 0 min 0 UV-I 0 W/m 1,6 km/h (1 Bft)
08.06.2010 22:40 18,3 C 79 % 1004,7 hPa 0,0 mm 0,0 km/h (0 Bft) N 0 0 min 0 UV-I 0 W/m 0,0 km/h (0 Bft)
08.06.2010 22:50 18,2 C 79 % 1004,7 hPa 0,0 mm 0,0 km/h (0 Bft) N-NW 337 0 min 0 UV-I 0 W/m 3,2 km/h (1 Bft)
08.06.2010 23:00 18,2 C 78 % 1004,7 hPa 0,0 mm 0,0 km/h (0 Bft) N-NW 337 0 min 0 UV-I 0 W/m 1,6 km/h (1 Bft)
08.06.2010 23:10 18,0 C 78 % 1004,6 hPa 0,0 mm 0,0 km/h (0 Bft) N-NW 337 0 min 0 UV-I 0 W/m 1,6 km/h (1 Bft)
08.06.2010 23:20 17,9 C 78 % 1004,5 hPa 0,0 mm 0,0 km/h (0 Bft) N-NW 337 0 min 0 UV-I 0 W/m 1,6 km/h (1 Bft)
08.06.2010 23:30 17,9 C 78 % 1004,5 hPa 0,0 mm 0,0 km/h (0 Bft) N-NW 337 0 min 0 UV-I 0 W/m 1,6 km/h (1 Bft)
08.06.2010 23:40 18,1 C 77 % 1004,5 hPa 0,0 mm 0,0 km/h (0 Bft) N-NW 337 0 min 0 UV-I 0 W/m 3,2 km/h (1 Bft)
08.06.2010 23:50 18,1 C 77 % 1004,5 hPa 0,0 mm 0,0 km/h (0 Bft) N-NW 337 0 min 0 UV-I 0 W/m 3,2 km/h (1 Bft)
_ Min-Zeit 04:00 14:20 17:40 - 00:00 - - - - - 01:10
Minimum _ 11,4 C 44 % 1003,3 hPa - 0,0 km/h (0 Bft) - - - - - 0,0 km/h (0 Bft)
_ Max-Zeit 14:30 04:10 00:00 00:00 14:20 - - 06:30 13:20 13:20 14:00
Maximum _ 26,3 C 89 % 1009,1 hPa 0,0 mm 8,0 km/h
S (2 Bft)
- - 10 min 7 UV-I 1097 W/m 20,9 km/h
SW (4 Bft)
Durchschnitt _ 18,7 C 70 % 1005,8 hPa #0,0 mm 1,6 km/h (1 Bft) S - #8:40 h 3 UV-I 429 W/m 6,3 km/h (2 Bft)